sensor_id;sensor_type;location;lat;lon;timestamp;temperature;humidity
62555;DHT22;48610;52.144;8.624;2023-02-20T00:01:04;7.20;99.90
62555;DHT22;48610;52.144;8.624;2023-02-20T00:04:05;7.10;99.90
62555;DHT22;48610;52.144;8.624;2023-02-20T00:07:05;7.10;99.90
62555;DHT22;48610;52.144;8.624;2023-02-20T00:10:07;7.00;99.90
62555;DHT22;48610;52.144;8.624;2023-02-20T00:13:07;7.20;99.90
62555;DHT22;48610;52.144;8.624;2023-02-20T00:16:08;7.20;99.90
62555;DHT22;48610;52.144;8.624;2023-02-20T00:19:08;7.20;99.90
62555;DHT22;48610;52.144;8.624;2023-02-20T00:22:09;7.20;99.90
62555;DHT22;48610;52.144;8.624;2023-02-20T00:25:10;7.20;99.90
62555;DHT22;48610;52.144;8.624;2023-02-20T00:28:11;7.20;99.90
62555;DHT22;48610;52.144;8.624;2023-02-20T00:31:14;7.20;99.90
62555;DHT22;48610;52.144;8.624;2023-02-20T00:34:15;7.00;99.90
62555;DHT22;48610;52.144;8.624;2023-02-20T00:37:15;7.10;99.90
62555;DHT22;48610;52.144;8.624;2023-02-20T00:40:18;7.10;99.90
62555;DHT22;48610;52.144;8.624;2023-02-20T00:43:19;7.10;99.90
62555;DHT22;48610;52.144;8.624;2023-02-20T00:46:19;7.10;99.90
62555;DHT22;48610;52.144;8.624;2023-02-20T00:49:20;7.20;99.90
62555;DHT22;48610;52.144;8.624;2023-02-20T00:52:20;7.00;99.90
62555;DHT22;48610;52.144;8.624;2023-02-20T00:55:21;7.00;99.90
62555;DHT22;48610;52.144;8.624;2023-02-20T00:58:21;7.00;99.90
62555;DHT22;48610;52.144;8.624;2023-02-20T01:01:22;7.10;99.90
62555;DHT22;48610;52.144;8.624;2023-02-20T01:04:24;7.20;99.90
62555;DHT22;48610;52.144;8.624;2023-02-20T01:07:24;7.10;99.90
62555;DHT22;48610;52.144;8.624;2023-02-20T01:10:25;7.10;99.90
62555;DHT22;48610;52.144;8.624;2023-02-20T01:13:26;7.00;99.90
62555;DHT22;48610;52.144;8.624;2023-02-20T01:16:27;7.00;99.90
62555;DHT22;48610;52.144;8.624;2023-02-20T01:19:27;7.00;99.90
62555;DHT22;48610;52.144;8.624;2023-02-20T01:22:28;7.10;99.90
62555;DHT22;48610;52.144;8.624;2023-02-20T01:25:28;6.90;99.90
62555;DHT22;48610;52.144;8.624;2023-02-20T01:28:29;6.80;99.90
62555;DHT22;48610;52.144;8.624;2023-02-20T01:31:30;7.00;99.90
62555;DHT22;48610;52.144;8.624;2023-02-20T01:34:30;7.00;99.90
62555;DHT22;48610;52.144;8.624;2023-02-20T01:37:31;7.00;99.90
62555;DHT22;48610;52.144;8.624;2023-02-20T01:40:33;7.00;99.90
62555;DHT22;48610;52.144;8.624;2023-02-20T01:43:34;7.00;99.90
62555;DHT22;48610;52.144;8.624;2023-02-20T01:46:45;6.90;99.90
62555;DHT22;48610;52.144;8.624;2023-02-20T01:49:55;7.00;99.90
62555;DHT22;48610;52.144;8.624;2023-02-20T01:53:01;7.00;99.90
62555;DHT22;48610;52.144;8.624;2023-02-20T01:56:04;6.90;99.90
62555;DHT22;48610;52.144;8.624;2023-02-20T01:59:07;6.90;99.90
62555;DHT22;48610;52.144;8.624;2023-02-20T02:02:09;7.00;99.90
62555;DHT22;48610;52.144;8.624;2023-02-20T02:05:10;6.90;99.90
62555;DHT22;48610;52.144;8.624;2023-02-20T02:08:14;6.90;99.90
62555;DHT22;48610;52.144;8.624;2023-02-20T02:11:18;6.80;99.90
62555;DHT22;48610;52.144;8.624;2023-02-20T02:14:19;6.80;99.90
62555;DHT22;48610;52.144;8.624;2023-02-20T02:24:26;6.80;99.90
62555;DHT22;48610;52.144;8.624;2023-02-20T02:28:01;6.90;99.90
62555;DHT22;48610;52.144;8.624;2023-02-20T02:34:55;7.10;99.90
62555;DHT22;48610;52.144;8.624;2023-02-20T02:38:25;7.00;99.90
62555;DHT22;48610;52.144;8.624;2023-02-20T02:45:02;7.10;99.90
62555;DHT22;48610;52.144;8.624;2023-02-20T02:48:27;7.00;99.90
62555;DHT22;48610;52.144;8.624;2023-02-20T02:51:31;7.00;99.90
62555;DHT22;48610;52.144;8.624;2023-02-20T02:54:34;6.90;99.90
62555;DHT22;48610;52.144;8.624;2023-02-20T02:57:35;7.00;99.90
62555;DHT22;48610;52.144;8.624;2023-02-20T03:00:52;7.00;99.90
62555;DHT22;48610;52.144;8.624;2023-02-20T03:03:56;6.90;99.90
62555;DHT22;48610;52.144;8.624;2023-02-20T03:07:01;6.90;99.90
62555;DHT22;48610;52.144;8.624;2023-02-20T03:10:04;6.90;99.90
62555;DHT22;48610;52.144;8.624;2023-02-20T03:13:07;7.00;99.90
62555;DHT22;48610;52.144;8.624;2023-02-20T03:16:15;7.10;99.90
62555;DHT22;48610;52.144;8.624;2023-02-20T03:19:23;7.00;99.90
62555;DHT22;48610;52.144;8.624;2023-02-20T03:22:32;7.10;99.90
62555;DHT22;48610;52.144;8.624;2023-02-20T03:25:38;7.20;99.90
62555;DHT22;48610;52.144;8.624;2023-02-20T03:28:42;7.20;99.90
62555;DHT22;48610;52.144;8.624;2023-02-20T03:31:48;7.10;99.90
62555;DHT22;48610;52.144;8.624;2023-02-20T03:34:51;7.10;99.90
62555;DHT22;48610;52.144;8.624;2023-02-20T03:38:13;7.20;99.90
62555;DHT22;48610;52.144;8.624;2023-02-20T03:41:34;7.20;99.90
62555;DHT22;48610;52.144;8.624;2023-02-20T03:44:56;7.30;99.90
62555;DHT22;48610;52.144;8.624;2023-02-20T03:48:02;7.30;99.90
62555;DHT22;48610;52.144;8.624;2023-02-20T03:51:05;7.30;99.90
62555;DHT22;48610;52.144;8.624;2023-02-20T03:54:26;7.40;99.90
62555;DHT22;48610;52.144;8.624;2023-02-20T03:57:31;7.40;99.90
62555;DHT22;48610;52.144;8.624;2023-02-20T04:00:38;7.30;99.90
62555;DHT22;48610;52.144;8.624;2023-02-20T04:03:41;7.40;99.90
62555;DHT22;48610;52.144;8.624;2023-02-20T04:06:45;7.40;99.90
62555;DHT22;48610;52.144;8.624;2023-02-20T04:09:48;7.50;99.90
62555;DHT22;48610;52.144;8.624;2023-02-20T04:12:49;7.50;99.90
62555;DHT22;48610;52.144;8.624;2023-02-20T04:15:52;7.40;99.90
62555;DHT22;48610;52.144;8.624;2023-02-20T04:18:53;7.50;99.90
62555;DHT22;48610;52.144;8.624;2023-02-20T04:21:56;7.30;99.90
62555;DHT22;48610;52.144;8.624;2023-02-20T04:25:11;7.40;99.90
62555;DHT22;48610;52.144;8.624;2023-02-20T04:28:15;7.50;99.90
62555;DHT22;48610;52.144;8.624;2023-02-20T04:31:17;7.40;99.90
62555;DHT22;48610;52.144;8.624;2023-02-20T04:34:18;7.40;99.90
62555;DHT22;48610;52.144;8.624;2023-02-20T04:37:19;7.40;99.90
62555;DHT22;48610;52.144;8.624;2023-02-20T04:40:22;7.40;99.90
62555;DHT22;48610;52.144;8.624;2023-02-20T04:43:23;7.30;99.90
62555;DHT22;48610;52.144;8.624;2023-02-20T04:46:23;7.40;99.90
62555;DHT22;48610;52.144;8.624;2023-02-20T04:49:24;7.50;99.90
62555;DHT22;48610;52.144;8.624;2023-02-20T04:52:25;7.50;99.90
62555;DHT22;48610;52.144;8.624;2023-02-20T04:55:26;7.40;99.90
62555;DHT22;48610;52.144;8.624;2023-02-20T04:58:27;7.30;99.90
62555;DHT22;48610;52.144;8.624;2023-02-20T05:01:27;7.30;99.90
62555;DHT22;48610;52.144;8.624;2023-02-20T05:04:28;7.30;99.90
62555;DHT22;48610;52.144;8.624;2023-02-20T05:07:28;7.30;99.90
62555;DHT22;48610;52.144;8.624;2023-02-20T05:10:30;7.40;99.90
62555;DHT22;48610;52.144;8.624;2023-02-20T05:13:32;7.40;99.90
62555;DHT22;48610;52.144;8.624;2023-02-20T05:16:32;7.30;99.90
62555;DHT22;48610;52.144;8.624;2023-02-20T05:19:33;7.30;99.90
62555;DHT22;48610;52.144;8.624;2023-02-20T05:22:33;7.30;99.90
62555;DHT22;48610;52.144;8.624;2023-02-20T05:25:34;7.30;99.90
62555;DHT22;48610;52.144;8.624;2023-02-20T05:28:34;7.30;99.90
62555;DHT22;48610;52.144;8.624;2023-02-20T05:31:35;7.40;99.90
62555;DHT22;48610;52.144;8.624;2023-02-20T05:34:36;7.30;99.90
62555;DHT22;48610;52.144;8.624;2023-02-20T05:37:36;7.40;99.90
62555;DHT22;48610;52.144;8.624;2023-02-20T05:40:37;7.20;99.90
62555;DHT22;48610;52.144;8.624;2023-02-20T05:43:37;7.30;99.90
62555;DHT22;48610;52.144;8.624;2023-02-20T05:46:40;7.40;99.90
62555;DHT22;48610;52.144;8.624;2023-02-20T05:49:41;7.30;99.90
62555;DHT22;48610;52.144;8.624;2023-02-20T05:52:41;7.40;99.90
62555;DHT22;48610;52.144;8.624;2023-02-20T05:55:43;7.40;99.90
62555;DHT22;48610;52.144;8.624;2023-02-20T05:58:44;7.40;99.90
62555;DHT22;48610;52.144;8.624;2023-02-20T06:01:45;7.30;99.90
62555;DHT22;48610;52.144;8.624;2023-02-20T06:04:46;7.40;99.90
62555;DHT22;48610;52.144;8.624;2023-02-20T06:07:46;7.30;99.90
62555;DHT22;48610;52.144;8.624;2023-02-20T06:10:47;7.30;99.90
62555;DHT22;48610;52.144;8.624;2023-02-20T06:13:47;7.30;99.90
62555;DHT22;48610;52.144;8.624;2023-02-20T06:16:48;7.30;99.90
62555;DHT22;48610;52.144;8.624;2023-02-20T06:19:49;7.40;99.90
62555;DHT22;48610;52.144;8.624;2023-02-20T06:22:50;7.30;99.90
62555;DHT22;48610;52.144;8.624;2023-02-20T06:25:50;7.30;99.90
62555;DHT22;48610;52.144;8.624;2023-02-20T06:28:51;7.40;99.90
62555;DHT22;48610;52.144;8.624;2023-02-20T06:31:57;7.30;99.90
62555;DHT22;48610;52.144;8.624;2023-02-20T06:34:58;7.10;99.90
62555;DHT22;48610;52.144;8.624;2023-02-20T06:37:59;7.10;99.90
62555;DHT22;48610;52.144;8.624;2023-02-20T06:41:00;7.10;99.90
62555;DHT22;48610;52.144;8.624;2023-02-20T06:44:00;7.00;99.90
62555;DHT22;48610;52.144;8.624;2023-02-20T06:47:01;7.10;99.90
62555;DHT22;48610;52.144;8.624;2023-02-20T06:50:03;7.10;99.90
62555;DHT22;48610;52.144;8.624;2023-02-20T06:53:03;7.10;99.90
62555;DHT22;48610;52.144;8.624;2023-02-20T06:56:08;7.10;99.90
62555;DHT22;48610;52.144;8.624;2023-02-20T06:59:11;7.10;99.90
62555;DHT22;48610;52.144;8.624;2023-02-20T07:02:13;7.10;99.90
62555;DHT22;48610;52.144;8.624;2023-02-20T07:05:15;7.10;99.90
62555;DHT22;48610;52.144;8.624;2023-02-20T07:08:15;7.30;99.90
62555;DHT22;48610;52.144;8.624;2023-02-20T07:11:18;7.30;99.90
62555;DHT22;48610;52.144;8.624;2023-02-20T07:14:19;7.40;99.90
62555;DHT22;48610;52.144;8.624;2023-02-20T07:17:20;7.40;99.90
62555;DHT22;48610;52.144;8.624;2023-02-20T07:20:20;7.30;99.90
62555;DHT22;48610;52.144;8.624;2023-02-20T07:23:22;7.30;99.90
62555;DHT22;48610;52.144;8.624;2023-02-20T07:26:25;7.40;99.90
62555;DHT22;48610;52.144;8.624;2023-02-20T07:29:26;7.40;99.90
62555;DHT22;48610;52.144;8.624;2023-02-20T07:32:26;7.40;99.90
62555;DHT22;48610;52.144;8.624;2023-02-20T07:35:27;7.40;99.90
62555;DHT22;48610;52.144;8.624;2023-02-20T07:38:27;7.40;99.90
62555;DHT22;48610;52.144;8.624;2023-02-20T07:41:29;7.40;99.90
62555;DHT22;48610;52.144;8.624;2023-02-20T07:44:36;7.30;99.90
62555;DHT22;48610;52.144;8.624;2023-02-20T07:47:37;7.40;99.90
62555;DHT22;48610;52.144;8.624;2023-02-20T07:50:37;7.50;99.90
62555;DHT22;48610;52.144;8.624;2023-02-20T07:53:38;7.50;99.90
62555;DHT22;48610;52.144;8.624;2023-02-20T07:56:41;7.40;99.90
62555;DHT22;48610;52.144;8.624;2023-02-20T07:59:42;7.40;99.90
62555;DHT22;48610;52.144;8.624;2023-02-20T08:02:43;7.40;99.90
62555;DHT22;48610;52.144;8.624;2023-02-20T08:05:44;7.40;99.90
62555;DHT22;48610;52.144;8.624;2023-02-20T08:08:49;7.40;99.90
62555;DHT22;48610;52.144;8.624;2023-02-20T08:11:49;7.40;99.90
62555;DHT22;48610;52.144;8.624;2023-02-20T08:14:50;7.40;99.90
62555;DHT22;48610;52.144;8.624;2023-02-20T08:17:51;7.30;99.90
62555;DHT22;48610;52.144;8.624;2023-02-20T08:20:52;7.30;99.90
62555;DHT22;48610;52.144;8.624;2023-02-20T08:23:52;7.20;99.90
62555;DHT22;48610;52.144;8.624;2023-02-20T08:26:54;7.30;99.90
62555;DHT22;48610;52.144;8.624;2023-02-20T08:29:55;7.30;99.90
62555;DHT22;48610;52.144;8.624;2023-02-20T08:32:55;7.40;99.90
62555;DHT22;48610;52.144;8.624;2023-02-20T08:35:56;7.40;99.90
62555;DHT22;48610;52.144;8.624;2023-02-20T08:38:57;7.40;99.90
62555;DHT22;48610;52.144;8.624;2023-02-20T08:41:59;7.50;99.90
62555;DHT22;48610;52.144;8.624;2023-02-20T08:45:04;7.50;99.90
62555;DHT22;48610;52.144;8.624;2023-02-20T08:48:05;7.40;99.90
62555;DHT22;48610;52.144;8.624;2023-02-20T08:51:06;7.50;99.90
62555;DHT22;48610;52.144;8.624;2023-02-20T08:54:06;7.40;99.90
62555;DHT22;48610;52.144;8.624;2023-02-20T08:57:07;7.40;99.90
62555;DHT22;48610;52.144;8.624;2023-02-20T09:00:08;7.40;99.90
62555;DHT22;48610;52.144;8.624;2023-02-20T09:03:09;7.30;99.90
62555;DHT22;48610;52.144;8.624;2023-02-20T09:06:10;7.30;99.90
62555;DHT22;48610;52.144;8.624;2023-02-20T09:09:10;7.50;99.90
62555;DHT22;48610;52.144;8.624;2023-02-20T09:12:11;7.50;99.90
62555;DHT22;48610;52.144;8.624;2023-02-20T09:15:13;7.50;99.90
62555;DHT22;48610;52.144;8.624;2023-02-20T09:18:17;7.50;99.90
62555;DHT22;48610;52.144;8.624;2023-02-20T09:21:18;7.40;99.90
62555;DHT22;48610;52.144;8.624;2023-02-20T09:24:19;7.50;99.90
62555;DHT22;48610;52.144;8.624;2023-02-20T09:27:20;7.60;99.90
62555;DHT22;48610;52.144;8.624;2023-02-20T09:30:21;7.70;99.90
62555;DHT22;48610;52.144;8.624;2023-02-20T09:33:23;7.70;99.90
62555;DHT22;48610;52.144;8.624;2023-02-20T09:36:23;7.70;99.90
62555;DHT22;48610;52.144;8.624;2023-02-20T09:39:24;7.60;99.90
62555;DHT22;48610;52.144;8.624;2023-02-20T09:42:39;7.60;99.90
62555;DHT22;48610;52.144;8.624;2023-02-20T09:46:15;7.70;99.90
62555;DHT22;48610;52.144;8.624;2023-02-20T09:49:20;7.60;99.90
62555;DHT22;48610;52.144;8.624;2023-02-20T09:52:26;7.70;99.90
62555;DHT22;48610;52.144;8.624;2023-02-20T09:55:34;7.70;99.90
62555;DHT22;48610;52.144;8.624;2023-02-20T09:58:50;7.60;99.90
62555;DHT22;48610;52.144;8.624;2023-02-20T10:01:59;7.70;99.90
62555;DHT22;48610;52.144;8.624;2023-02-20T10:05:05;7.70;99.90
62555;DHT22;48610;52.144;8.624;2023-02-20T10:08:09;7.70;99.90
62555;DHT22;48610;52.144;8.624;2023-02-20T10:11:19;7.70;99.90
62555;DHT22;48610;52.144;8.624;2023-02-20T10:17:41;7.70;99.90
62555;DHT22;48610;52.144;8.624;2023-02-20T10:23:50;7.80;99.90
62555;DHT22;48610;52.144;8.624;2023-02-20T10:27:03;7.80;99.90
62555;DHT22;48610;52.144;8.624;2023-02-20T10:30:19;7.90;99.90
62555;DHT22;48610;52.144;8.624;2023-02-20T10:33:37;7.90;99.90
62555;DHT22;48610;52.144;8.624;2023-02-20T10:37:11;7.80;99.90
62555;DHT22;48610;52.144;8.624;2023-02-20T10:40:15;7.90;99.90
62555;DHT22;48610;52.144;8.624;2023-02-20T10:43:29;7.80;99.90
62555;DHT22;48610;52.144;8.624;2023-02-20T10:46:51;7.90;99.90
62555;DHT22;48610;52.144;8.624;2023-02-20T10:53:01;8.00;99.90
62555;DHT22;48610;52.144;8.624;2023-02-20T10:59:19;8.00;99.90
62555;DHT22;48610;52.144;8.624;2023-02-20T11:02:25;7.90;99.90
62555;DHT22;48610;52.144;8.624;2023-02-20T11:05:32;8.00;99.90
62555;DHT22;48610;52.144;8.624;2023-02-20T11:08:34;8.00;99.90
62555;DHT22;48610;52.144;8.624;2023-02-20T11:11:38;8.10;99.90
62555;DHT22;48610;52.144;8.624;2023-02-20T11:14:45;8.10;99.90
62555;DHT22;48610;52.144;8.624;2023-02-20T11:17:53;8.10;99.90
62555;DHT22;48610;52.144;8.624;2023-02-20T11:20:54;8.10;99.90
62555;DHT22;48610;52.144;8.624;2023-02-20T11:23:55;8.10;99.90
62555;DHT22;48610;52.144;8.624;2023-02-20T11:33:32;8.20;99.90
62555;DHT22;48610;52.144;8.624;2023-02-20T11:36:38;8.10;99.90
62555;DHT22;48610;52.144;8.624;2023-02-20T11:39:45;8.10;99.90
62555;DHT22;48610;52.144;8.624;2023-02-20T11:42:46;8.30;99.90
62555;DHT22;48610;52.144;8.624;2023-02-20T11:45:49;8.20;99.90
62555;DHT22;48610;52.144;8.624;2023-02-20T11:49:06;8.20;99.90
62555;DHT22;48610;52.144;8.624;2023-02-20T11:52:23;8.20;99.90
62555;DHT22;48610;52.144;8.624;2023-02-20T11:55:26;8.30;99.90
62555;DHT22;48610;52.144;8.624;2023-02-20T11:58:27;8.30;99.90
62555;DHT22;48610;52.144;8.624;2023-02-20T12:01:33;8.30;99.90
62555;DHT22;48610;52.144;8.624;2023-02-20T12:04:35;8.30;99.90
62555;DHT22;48610;52.144;8.624;2023-02-20T12:07:39;8.30;99.90
62555;DHT22;48610;52.144;8.624;2023-02-20T12:10:49;8.20;99.90
62555;DHT22;48610;52.144;8.624;2023-02-20T12:13:54;8.20;99.90
62555;DHT22;48610;52.144;8.624;2023-02-20T12:17:14;8.20;99.90
62555;DHT22;48610;52.144;8.624;2023-02-20T12:20:24;8.30;99.90
62555;DHT22;48610;52.144;8.624;2023-02-20T12:23:35;8.30;99.90
62555;DHT22;48610;52.144;8.624;2023-02-20T12:26:51;8.30;99.90
62555;DHT22;48610;52.144;8.624;2023-02-20T12:47:28;8.50;99.90
62555;DHT22;48610;52.144;8.624;2023-02-20T12:51:02;8.50;99.90
62555;DHT22;48610;52.144;8.624;2023-02-20T12:54:15;8.50;99.90
62555;DHT22;48610;52.144;8.624;2023-02-20T12:57:25;8.50;99.90
62555;DHT22;48610;52.144;8.624;2023-02-20T13:00:59;8.50;99.90
62555;DHT22;48610;52.144;8.624;2023-02-20T13:04:06;8.50;99.90
62555;DHT22;48610;52.144;8.624;2023-02-20T13:07:50;8.50;99.90
62555;DHT22;48610;52.144;8.624;2023-02-20T13:11:00;8.60;99.90
62555;DHT22;48610;52.144;8.624;2023-02-20T13:17:24;8.50;99.90
62555;DHT22;48610;52.144;8.624;2023-02-20T13:20:38;8.50;99.90
62555;DHT22;48610;52.144;8.624;2023-02-20T13:23:40;8.50;99.90
62555;DHT22;48610;52.144;8.624;2023-02-20T13:30:00;8.50;99.90
62555;DHT22;48610;52.144;8.624;2023-02-20T13:33:27;8.50;99.90
62555;DHT22;48610;52.144;8.624;2023-02-20T13:42:33;8.50;99.90
62555;DHT22;48610;52.144;8.624;2023-02-20T13:45:40;8.50;99.90
62555;DHT22;48610;52.144;8.624;2023-02-20T13:48:46;8.50;99.90
62555;DHT22;48610;52.144;8.624;2023-02-20T13:51:47;8.50;99.90
62555;DHT22;48610;52.144;8.624;2023-02-20T13:54:47;8.50;99.90
62555;DHT22;48610;52.144;8.624;2023-02-20T13:57:52;8.50;99.90
62555;DHT22;48610;52.144;8.624;2023-02-20T14:00:54;8.60;99.90
62555;DHT22;48610;52.144;8.624;2023-02-20T14:04:03;8.50;99.90
62555;DHT22;48610;52.144;8.624;2023-02-20T14:07:05;8.50;99.90
62555;DHT22;48610;52.144;8.624;2023-02-20T14:13:23;8.60;99.90
62555;DHT22;48610;52.144;8.624;2023-02-20T14:16:31;8.60;99.90
62555;DHT22;48610;52.144;8.624;2023-02-20T14:19:38;8.70;99.90
62555;DHT22;48610;52.144;8.624;2023-02-20T14:22:40;8.70;99.90
62555;DHT22;48610;52.144;8.624;2023-02-20T14:25:41;8.50;99.90
62555;DHT22;48610;52.144;8.624;2023-02-20T14:28:46;8.50;99.90
62555;DHT22;48610;52.144;8.624;2023-02-20T14:31:51;8.60;99.90
62555;DHT22;48610;52.144;8.624;2023-02-20T14:34:57;8.60;99.90
62555;DHT22;48610;52.144;8.624;2023-02-20T14:41:27;8.70;99.90
62555;DHT22;48610;52.144;8.624;2023-02-20T14:44:30;8.60;99.90
62555;DHT22;48610;52.144;8.624;2023-02-20T14:47:31;8.60;99.90
62555;DHT22;48610;52.144;8.624;2023-02-20T14:50:34;8.60;99.90
62555;DHT22;48610;52.144;8.624;2023-02-20T14:53:35;8.50;99.90
62555;DHT22;48610;52.144;8.624;2023-02-20T14:56:37;8.50;99.90
62555;DHT22;48610;52.144;8.624;2023-02-20T14:59:39;8.50;99.90
62555;DHT22;48610;52.144;8.624;2023-02-20T15:02:41;8.50;99.90
62555;DHT22;48610;52.144;8.624;2023-02-20T15:05:45;8.50;99.90
62555;DHT22;48610;52.144;8.624;2023-02-20T15:08:46;8.50;99.90
62555;DHT22;48610;52.144;8.624;2023-02-20T15:11:52;8.50;99.90
62555;DHT22;48610;52.144;8.624;2023-02-20T15:15:05;8.60;99.90
62555;DHT22;48610;52.144;8.624;2023-02-20T15:18:12;8.60;99.90
62555;DHT22;48610;52.144;8.624;2023-02-20T15:21:32;8.60;99.90
62555;DHT22;48610;52.144;8.624;2023-02-20T15:24:36;8.60;99.90
62555;DHT22;48610;52.144;8.624;2023-02-20T15:27:37;8.50;99.90
62555;DHT22;48610;52.144;8.624;2023-02-20T15:34:16;8.60;99.90
62555;DHT22;48610;52.144;8.624;2023-02-20T15:37:25;8.50;99.90
62555;DHT22;48610;52.144;8.624;2023-02-20T15:40:29;8.60;99.90
62555;DHT22;48610;52.144;8.624;2023-02-20T15:43:30;8.60;99.90
62555;DHT22;48610;52.144;8.624;2023-02-20T15:46:31;8.60;99.90
62555;DHT22;48610;52.144;8.624;2023-02-20T15:49:33;8.60;99.90
62555;DHT22;48610;52.144;8.624;2023-02-20T15:52:33;8.60;99.90
62555;DHT22;48610;52.144;8.624;2023-02-20T15:55:35;8.50;99.90
62555;DHT22;48610;52.144;8.624;2023-02-20T15:58:38;8.50;99.90
62555;DHT22;48610;52.144;8.624;2023-02-20T16:01:39;8.50;99.90
62555;DHT22;48610;52.144;8.624;2023-02-20T16:04:40;8.50;99.90
62555;DHT22;48610;52.144;8.624;2023-02-20T16:07:41;8.40;99.90
62555;DHT22;48610;52.144;8.624;2023-02-20T16:10:41;8.50;99.90
62555;DHT22;48610;52.144;8.624;2023-02-20T16:13:44;8.40;99.90
62555;DHT22;48610;52.144;8.624;2023-02-20T16:16:47;8.50;99.90
62555;DHT22;48610;52.144;8.624;2023-02-20T16:19:50;8.50;99.90
62555;DHT22;48610;52.144;8.624;2023-02-20T16:22:51;8.40;99.90
62555;DHT22;48610;52.144;8.624;2023-02-20T16:25:52;8.40;99.90
62555;DHT22;48610;52.144;8.624;2023-02-20T16:28:58;8.50;99.90
62555;DHT22;48610;52.144;8.624;2023-02-20T16:35:00;8.50;99.90
62555;DHT22;48610;52.144;8.624;2023-02-20T16:38:01;8.50;99.90
62555;DHT22;48610;52.144;8.624;2023-02-20T16:41:01;8.50;99.90
62555;DHT22;48610;52.144;8.624;2023-02-20T16:44:13;8.40;99.90
62555;DHT22;48610;52.144;8.624;2023-02-20T16:47:17;8.40;99.90
62555;DHT22;48610;52.144;8.624;2023-02-20T16:50:20;8.40;99.90
62555;DHT22;48610;52.144;8.624;2023-02-20T16:53:22;8.60;99.90
62555;DHT22;48610;52.144;8.624;2023-02-20T16:56:23;8.60;99.90
62555;DHT22;48610;52.144;8.624;2023-02-20T16:59:24;8.60;99.90
62555;DHT22;48610;52.144;8.624;2023-02-20T17:02:27;8.50;99.90
62555;DHT22;48610;52.144;8.624;2023-02-20T17:05:31;8.50;99.90
62555;DHT22;48610;52.144;8.624;2023-02-20T17:08:32;8.50;99.90
62555;DHT22;48610;52.144;8.624;2023-02-20T17:11:32;8.60;99.90
62555;DHT22;48610;52.144;8.624;2023-02-20T17:14:33;8.60;99.90
62555;DHT22;48610;52.144;8.624;2023-02-20T17:17:34;8.50;99.90
62555;DHT22;48610;52.144;8.624;2023-02-20T17:20:34;8.40;99.90
62555;DHT22;48610;52.144;8.624;2023-02-20T17:23:36;8.50;99.90
62555;DHT22;48610;52.144;8.624;2023-02-20T17:26:36;8.50;99.90
62555;DHT22;48610;52.144;8.624;2023-02-20T17:29:38;8.50;99.90
62555;DHT22;48610;52.144;8.624;2023-02-20T17:32:40;8.60;99.90
62555;DHT22;48610;52.144;8.624;2023-02-20T17:35:41;8.70;99.90
62555;DHT22;48610;52.144;8.624;2023-02-20T17:38:42;8.70;99.90
62555;DHT22;48610;52.144;8.624;2023-02-20T17:41:42;8.60;99.90
62555;DHT22;48610;52.144;8.624;2023-02-20T17:44:43;8.50;99.90
62555;DHT22;48610;52.144;8.624;2023-02-20T17:47:43;8.50;99.90
62555;DHT22;48610;52.144;8.624;2023-02-20T17:50:44;8.60;99.90
62555;DHT22;48610;52.144;8.624;2023-02-20T17:53:45;8.50;99.90
62555;DHT22;48610;52.144;8.624;2023-02-20T17:56:46;8.60;99.90
62555;DHT22;48610;52.144;8.624;2023-02-20T17:59:47;8.70;99.90
62555;DHT22;48610;52.144;8.624;2023-02-20T18:02:51;8.70;99.90
62555;DHT22;48610;52.144;8.624;2023-02-20T18:05:52;8.70;99.90
62555;DHT22;48610;52.144;8.624;2023-02-20T18:08:54;8.80;99.90
62555;DHT22;48610;52.144;8.624;2023-02-20T18:11:55;8.80;99.90
62555;DHT22;48610;52.144;8.624;2023-02-20T18:14:56;8.80;99.90
62555;DHT22;48610;52.144;8.624;2023-02-20T18:17:56;8.70;99.90
62555;DHT22;48610;52.144;8.624;2023-02-20T18:20:57;8.70;99.90
62555;DHT22;48610;52.144;8.624;2023-02-20T18:23:58;8.70;99.90
62555;DHT22;48610;52.144;8.624;2023-02-20T18:26:59;8.70;99.90
62555;DHT22;48610;52.144;8.624;2023-02-20T18:29:59;8.70;99.90
62555;DHT22;48610;52.144;8.624;2023-02-20T18:33:00;8.70;99.90
62555;DHT22;48610;52.144;8.624;2023-02-20T18:36:01;8.70;99.90
62555;DHT22;48610;52.144;8.624;2023-02-20T18:39:02;8.70;99.90
62555;DHT22;48610;52.144;8.624;2023-02-20T18:42:04;8.70;99.90
62555;DHT22;48610;52.144;8.624;2023-02-20T18:45:05;8.70;99.90
62555;DHT22;48610;52.144;8.624;2023-02-20T18:48:06;8.80;99.90
62555;DHT22;48610;52.144;8.624;2023-02-20T18:51:07;8.70;99.90
62555;DHT22;48610;52.144;8.624;2023-02-20T18:54:18;8.80;99.90
62555;DHT22;48610;52.144;8.624;2023-02-20T18:57:20;8.80;99.90
62555;DHT22;48610;52.144;8.624;2023-02-20T19:00:27;8.80;99.90
62555;DHT22;48610;52.144;8.624;2023-02-20T19:03:28;8.80;99.90
62555;DHT22;48610;52.144;8.624;2023-02-20T19:06:33;8.70;99.90
62555;DHT22;48610;52.144;8.624;2023-02-20T19:09:33;8.80;99.90
62555;DHT22;48610;52.144;8.624;2023-02-20T19:12:37;8.80;99.90
62555;DHT22;48610;52.144;8.624;2023-02-20T19:15:38;8.70;99.90
62555;DHT22;48610;52.144;8.624;2023-02-20T19:18:40;8.60;99.90
62555;DHT22;48610;52.144;8.624;2023-02-20T19:21:41;8.70;99.90
62555;DHT22;48610;52.144;8.624;2023-02-20T19:24:42;8.70;99.90
62555;DHT22;48610;52.144;8.624;2023-02-20T19:27:42;8.80;99.90
62555;DHT22;48610;52.144;8.624;2023-02-20T19:30:43;8.80;99.90
62555;DHT22;48610;52.144;8.624;2023-02-20T19:33:47;8.80;99.90
62555;DHT22;48610;52.144;8.624;2023-02-20T19:36:49;8.80;99.90
62555;DHT22;48610;52.144;8.624;2023-02-20T19:39:49;8.80;99.90
62555;DHT22;48610;52.144;8.624;2023-02-20T19:42:50;8.70;99.90
62555;DHT22;48610;52.144;8.624;2023-02-20T19:45:51;8.70;99.90
62555;DHT22;48610;52.144;8.624;2023-02-20T19:48:51;8.70;99.90
62555;DHT22;48610;52.144;8.624;2023-02-20T19:51:53;8.70;99.90
62555;DHT22;48610;52.144;8.624;2023-02-20T19:54:54;8.70;99.90
62555;DHT22;48610;52.144;8.624;2023-02-20T19:57:55;8.70;99.90
62555;DHT22;48610;52.144;8.624;2023-02-20T20:00:56;8.70;99.90
62555;DHT22;48610;52.144;8.624;2023-02-20T20:03:56;8.70;99.90
62555;DHT22;48610;52.144;8.624;2023-02-20T20:06:58;8.80;99.90
62555;DHT22;48610;52.144;8.624;2023-02-20T20:09:59;8.80;99.90
62555;DHT22;48610;52.144;8.624;2023-02-20T20:13:00;8.70;99.90
62555;DHT22;48610;52.144;8.624;2023-02-20T20:16:00;8.80;99.90
62555;DHT22;48610;52.144;8.624;2023-02-20T20:19:01;8.80;99.90
62555;DHT22;48610;52.144;8.624;2023-02-20T20:22:02;8.80;99.90
62555;DHT22;48610;52.144;8.624;2023-02-20T20:25:04;8.80;99.90
62555;DHT22;48610;52.144;8.624;2023-02-20T20:28:05;8.80;99.90
62555;DHT22;48610;52.144;8.624;2023-02-20T20:31:08;8.70;99.90
62555;DHT22;48610;52.144;8.624;2023-02-20T20:34:09;8.80;99.90
62555;DHT22;48610;52.144;8.624;2023-02-20T20:37:09;8.90;99.90
62555;DHT22;48610;52.144;8.624;2023-02-20T20:40:10;8.90;99.90
62555;DHT22;48610;52.144;8.624;2023-02-20T20:43:13;8.90;99.90
62555;DHT22;48610;52.144;8.624;2023-02-20T20:46:16;8.90;99.90
62555;DHT22;48610;52.144;8.624;2023-02-20T20:49:17;8.90;99.90
62555;DHT22;48610;52.144;8.624;2023-02-20T20:52:18;8.90;99.90
62555;DHT22;48610;52.144;8.624;2023-02-20T20:55:19;9.00;99.90